sensor_id;sensor_type;location;lat;lon;timestamp;P1;durP1;ratioP1;P2;durP2;ratioP2
14400;SDS011;7285;50.894;5.462;2023-06-24T00:00:09;0.80;;;0.80;;
14400;SDS011;7285;50.894;5.462;2023-06-24T00:02:37;0.57;;;0.57;;
14400;SDS011;7285;50.894;5.462;2023-06-24T00:05:08;0.87;;;0.87;;
14400;SDS011;7285;50.894;5.462;2023-06-24T00:07:35;0.90;;;0.80;;
14400;SDS011;7285;50.894;5.462;2023-06-24T00:10:09;1.30;;;1.20;;
14400;SDS011;7285;50.894;5.462;2023-06-24T00:12:37;1.23;;;0.90;;
14400;SDS011;7285;50.894;5.462;2023-06-24T00:15:04;0.80;;;0.80;;
14400;SDS011;7285;50.894;5.462;2023-06-24T00:17:34;0.47;;;0.47;;
14400;SDS011;7285;50.894;5.462;2023-06-24T00:20:01;0.97;;;0.90;;
14400;SDS011;7285;50.894;5.462;2023-06-24T00:22:32;2.20;;;1.30;;
14400;SDS011;7285;50.894;5.462;2023-06-24T00:24:59;0.53;;;0.53;;
14400;SDS011;7285;50.894;5.462;2023-06-24T00:27:26;1.00;;;1.00;;
14400;SDS011;7285;50.894;5.462;2023-06-24T00:29:53;1.03;;;1.00;;
14400;SDS011;7285;50.894;5.462;2023-06-24T00:32:20;0.90;;;0.90;;
14400;SDS011;7285;50.894;5.462;2023-06-24T00:34:47;1.13;;;1.03;;
14400;SDS011;7285;50.894;5.462;2023-06-24T00:37:15;1.10;;;1.10;;
14400;SDS011;7285;50.894;5.462;2023-06-24T00:39:44;1.37;;;1.07;;
14400;SDS011;7285;50.894;5.462;2023-06-24T00:42:11;1.07;;;1.00;;
14400;SDS011;7285;50.894;5.462;2023-06-24T00:44:38;0.90;;;0.90;;
14400;SDS011;7285;50.894;5.462;2023-06-24T00:47:05;1.00;;;1.00;;
14400;SDS011;7285;50.894;5.462;2023-06-24T00:49:34;0.80;;;0.80;;
14400;SDS011;7285;50.894;5.462;2023-06-24T00:52:01;1.40;;;1.00;;
14400;SDS011;7285;50.894;5.462;2023-06-24T00:54:28;1.53;;;1.13;;
14400;SDS011;7285;50.894;5.462;2023-06-24T00:56:58;0.80;;;0.80;;
14400;SDS011;7285;50.894;5.462;2023-06-24T00:59:26;0.90;;;0.90;;
14400;SDS011;7285;50.894;5.462;2023-06-24T01:01:57;1.10;;;1.07;;
14400;SDS011;7285;50.894;5.462;2023-06-24T01:04:26;0.70;;;0.70;;
14400;SDS011;7285;50.894;5.462;2023-06-24T01:06:54;0.90;;;0.90;;
14400;SDS011;7285;50.894;5.462;2023-06-24T01:09:23;0.80;;;0.80;;
14400;SDS011;7285;50.894;5.462;2023-06-24T01:11:50;1.60;;;1.10;;
14400;SDS011;7285;50.894;5.462;2023-06-24T01:14:18;1.50;;;1.40;;
14400;SDS011;7285;50.894;5.462;2023-06-24T01:16:49;2.13;;;1.03;;
14400;SDS011;7285;50.894;5.462;2023-06-24T01:19:44;0.67;;;0.67;;
14400;SDS011;7285;50.894;5.462;2023-06-24T01:22:28;0.90;;;0.90;;
14400;SDS011;7285;50.894;5.462;2023-06-24T01:25:15;1.10;;;1.00;;
14400;SDS011;7285;50.894;5.462;2023-06-24T01:27:57;2.63;;;1.30;;
14400;SDS011;7285;50.894;5.462;2023-06-24T01:31:04;1.20;;;1.10;;
14400;SDS011;7285;50.894;5.462;2023-06-24T01:33:50;0.70;;;0.70;;
14400;SDS011;7285;50.894;5.462;2023-06-24T01:36:25;2.63;;;1.13;;
14400;SDS011;7285;50.894;5.462;2023-06-24T01:38:55;1.23;;;1.10;;
14400;SDS011;7285;50.894;5.462;2023-06-24T01:41:29;1.23;;;1.13;;
14400;SDS011;7285;50.894;5.462;2023-06-24T01:43:58;0.90;;;0.90;;
14400;SDS011;7285;50.894;5.462;2023-06-24T01:46:28;0.90;;;0.90;;
14400;SDS011;7285;50.894;5.462;2023-06-24T01:48:58;2.07;;;1.30;;
14400;SDS011;7285;50.894;5.462;2023-06-24T01:51:28;0.83;;;0.80;;
14400;SDS011;7285;50.894;5.462;2023-06-24T01:53:58;0.83;;;0.63;;
14400;SDS011;7285;50.894;5.462;2023-06-24T01:56:28;1.17;;;1.07;;
14400;SDS011;7285;50.894;5.462;2023-06-24T01:58:57;4.40;;;1.30;;
14400;SDS011;7285;50.894;5.462;2023-06-24T02:01:28;1.43;;;1.10;;
14400;SDS011;7285;50.894;5.462;2023-06-24T02:03:58;2.07;;;1.47;;
14400;SDS011;7285;50.894;5.462;2023-06-24T02:06:26;1.20;;;1.10;;
14400;SDS011;7285;50.894;5.462;2023-06-24T02:08:56;1.10;;;1.10;;
14400;SDS011;7285;50.894;5.462;2023-06-24T02:11:24;1.57;;;1.47;;
14400;SDS011;7285;50.894;5.462;2023-06-24T02:13:54;0.70;;;0.70;;
14400;SDS011;7285;50.894;5.462;2023-06-24T02:16:21;1.30;;;1.00;;
14400;SDS011;7285;50.894;5.462;2023-06-24T02:18:50;0.80;;;0.80;;
14400;SDS011;7285;50.894;5.462;2023-06-24T02:21:18;0.70;;;0.70;;
14400;SDS011;7285;50.894;5.462;2023-06-24T02:23:47;1.57;;;1.27;;
14400;SDS011;7285;50.894;5.462;2023-06-24T02:26:15;1.40;;;1.20;;
14400;SDS011;7285;50.894;5.462;2023-06-24T02:28:43;1.53;;;1.40;;
14400;SDS011;7285;50.894;5.462;2023-06-24T02:31:11;1.13;;;0.93;;
14400;SDS011;7285;50.894;5.462;2023-06-24T02:33:40;1.10;;;1.10;;
14400;SDS011;7285;50.894;5.462;2023-06-24T02:36:09;1.00;;;1.00;;
14400;SDS011;7285;50.894;5.462;2023-06-24T02:38:36;1.30;;;1.20;;
14400;SDS011;7285;50.894;5.462;2023-06-24T02:41:03;0.90;;;0.77;;
14400;SDS011;7285;50.894;5.462;2023-06-24T02:43:30;0.67;;;0.60;;
14400;SDS011;7285;50.894;5.462;2023-06-24T02:45:57;1.37;;;1.27;;
14400;SDS011;7285;50.894;5.462;2023-06-24T02:48:25;1.23;;;1.03;;
14400;SDS011;7285;50.894;5.462;2023-06-24T02:50:54;6.53;;;1.00;;
14400;SDS011;7285;50.894;5.462;2023-06-24T02:53:23;1.73;;;1.13;;
14400;SDS011;7285;50.894;5.462;2023-06-24T02:55:50;1.70;;;1.60;;
14400;SDS011;7285;50.894;5.462;2023-06-24T02:58:19;0.90;;;0.90;;
14400;SDS011;7285;50.894;5.462;2023-06-24T03:00:47;1.20;;;1.10;;
14400;SDS011;7285;50.894;5.462;2023-06-24T03:03:14;1.50;;;1.20;;
14400;SDS011;7285;50.894;5.462;2023-06-24T03:05:42;2.23;;;1.40;;
14400;SDS011;7285;50.894;5.462;2023-06-24T03:08:09;1.43;;;1.23;;
14400;SDS011;7285;50.894;5.462;2023-06-24T03:10:38;1.23;;;1.13;;
14400;SDS011;7285;50.894;5.462;2023-06-24T03:13:05;2.70;;;1.23;;
14400;SDS011;7285;50.894;5.462;2023-06-24T03:15:32;1.17;;;1.17;;
14400;SDS011;7285;50.894;5.462;2023-06-24T03:17:59;2.33;;;2.10;;
14400;SDS011;7285;50.894;5.462;2023-06-24T03:20:26;1.60;;;1.10;;
14400;SDS011;7285;50.894;5.462;2023-06-24T03:22:53;1.20;;;1.10;;
14400;SDS011;7285;50.894;5.462;2023-06-24T03:25:21;1.77;;;1.40;;
14400;SDS011;7285;50.894;5.462;2023-06-24T03:27:49;1.20;;;1.20;;
14400;SDS011;7285;50.894;5.462;2023-06-24T03:30:16;1.10;;;1.10;;
14400;SDS011;7285;50.894;5.462;2023-06-24T03:32:43;0.90;;;0.67;;
14400;SDS011;7285;50.894;5.462;2023-06-24T03:35:12;1.00;;;1.00;;
14400;SDS011;7285;50.894;5.462;2023-06-24T03:37:39;1.93;;;1.20;;
14400;SDS011;7285;50.894;5.462;2023-06-24T03:40:06;1.27;;;1.17;;
14400;SDS011;7285;50.894;5.462;2023-06-24T03:42:34;1.17;;;1.00;;
14400;SDS011;7285;50.894;5.462;2023-06-24T03:45:03;0.83;;;0.83;;
14400;SDS011;7285;50.894;5.462;2023-06-24T03:47:30;2.13;;;1.53;;
14400;SDS011;7285;50.894;5.462;2023-06-24T03:49:57;1.90;;;1.80;;
14400;SDS011;7285;50.894;5.462;2023-06-24T03:52:24;2.03;;;1.70;;
14400;SDS011;7285;50.894;5.462;2023-06-24T03:54:51;1.70;;;1.50;;
14400;SDS011;7285;50.894;5.462;2023-06-24T03:57:19;1.20;;;1.13;;
14400;SDS011;7285;50.894;5.462;2023-06-24T03:59:47;1.50;;;1.40;;
14400;SDS011;7285;50.894;5.462;2023-06-24T04:02:15;1.10;;;1.10;;
14400;SDS011;7285;50.894;5.462;2023-06-24T04:04:43;1.40;;;1.30;;
14400;SDS011;7285;50.894;5.462;2023-06-24T04:07:10;1.30;;;1.23;;
14400;SDS011;7285;50.894;5.462;2023-06-24T04:09:36;1.47;;;1.37;;
14400;SDS011;7285;50.894;5.462;2023-06-24T04:12:04;1.50;;;1.40;;
14400;SDS011;7285;50.894;5.462;2023-06-24T04:14:31;1.60;;;1.20;;
14400;SDS011;7285;50.894;5.462;2023-06-24T04:16:58;1.47;;;1.10;;
14400;SDS011;7285;50.894;5.462;2023-06-24T04:19:28;1.00;;;1.00;;
14400;SDS011;7285;50.894;5.462;2023-06-24T04:21:57;0.80;;;0.80;;
14400;SDS011;7285;50.894;5.462;2023-06-24T04:24:23;1.43;;;1.33;;
14400;SDS011;7285;50.894;5.462;2023-06-24T04:26:50;1.30;;;1.20;;
14400;SDS011;7285;50.894;5.462;2023-06-24T04:29:17;1.60;;;1.27;;
14400;SDS011;7285;50.894;5.462;2023-06-24T04:31:44;1.30;;;1.20;;
14400;SDS011;7285;50.894;5.462;2023-06-24T04:34:11;1.53;;;1.43;;
14400;SDS011;7285;50.894;5.462;2023-06-24T04:36:39;1.07;;;1.07;;
14400;SDS011;7285;50.894;5.462;2023-06-24T04:39:06;6.10;;;1.60;;
14400;SDS011;7285;50.894;5.462;2023-06-24T04:41:33;2.83;;;1.20;;
14400;SDS011;7285;50.894;5.462;2023-06-24T04:44:00;1.50;;;1.27;;
14400;SDS011;7285;50.894;5.462;2023-06-24T04:46:28;1.07;;;1.07;;
14400;SDS011;7285;50.894;5.462;2023-06-24T04:48:57;1.10;;;1.00;;
14400;SDS011;7285;50.894;5.462;2023-06-24T04:51:24;1.27;;;1.00;;
14400;SDS011;7285;50.894;5.462;2023-06-24T04:53:53;0.90;;;0.90;;
14400;SDS011;7285;50.894;5.462;2023-06-24T04:56:20;1.23;;;1.13;;
14400;SDS011;7285;50.894;5.462;2023-06-24T04:58:47;0.60;;;0.60;;
14400;SDS011;7285;50.894;5.462;2023-06-24T05:01:14;0.70;;;0.70;;
14400;SDS011;7285;50.894;5.462;2023-06-24T05:03:40;1.20;;;1.10;;
14400;SDS011;7285;50.894;5.462;2023-06-24T05:06:07;0.97;;;0.93;;
14400;SDS011;7285;50.894;5.462;2023-06-24T05:08:34;1.10;;;1.10;;
14400;SDS011;7285;50.894;5.462;2023-06-24T05:11:03;1.20;;;1.13;;
14400;SDS011;7285;50.894;5.462;2023-06-24T05:13:30;1.03;;;0.77;;
14400;SDS011;7285;50.894;5.462;2023-06-24T05:15:57;1.50;;;1.00;;
14400;SDS011;7285;50.894;5.462;2023-06-24T05:18:24;1.77;;;1.67;;
14400;SDS011;7285;50.894;5.462;2023-06-24T05:20:51;1.67;;;1.40;;
14400;SDS011;7285;50.894;5.462;2023-06-24T05:23:18;1.10;;;1.00;;
14400;SDS011;7285;50.894;5.462;2023-06-24T05:25:45;1.17;;;1.00;;
14400;SDS011;7285;50.894;5.462;2023-06-24T05:28:14;2.23;;;2.03;;
14400;SDS011;7285;50.894;5.462;2023-06-24T05:30:41;2.03;;;1.40;;
14400;SDS011;7285;50.894;5.462;2023-06-24T05:33:08;1.13;;;0.97;;
14400;SDS011;7285;50.894;5.462;2023-06-24T05:35:34;1.10;;;1.10;;
14400;SDS011;7285;50.894;5.462;2023-06-24T05:38:05;1.73;;;1.57;;
14400;SDS011;7285;50.894;5.462;2023-06-24T05:40:31;2.07;;;1.23;;
14400;SDS011;7285;50.894;5.462;2023-06-24T05:42:58;1.07;;;1.07;;
14400;SDS011;7285;50.894;5.462;2023-06-24T05:45:27;2.23;;;0.60;;
14400;SDS011;7285;50.894;5.462;2023-06-24T05:47:54;1.27;;;1.17;;
14400;SDS011;7285;50.894;5.462;2023-06-24T05:50:21;1.20;;;1.00;;
14400;SDS011;7285;50.894;5.462;2023-06-24T05:52:47;1.70;;;1.60;;
14400;SDS011;7285;50.894;5.462;2023-06-24T05:55:14;0.93;;;0.93;;
14400;SDS011;7285;50.894;5.462;2023-06-24T05:57:41;0.77;;;0.70;;
14400;SDS011;7285;50.894;5.462;2023-06-24T06:00:08;0.97;;;0.87;;
14400;SDS011;7285;50.894;5.462;2023-06-24T06:02:37;0.70;;;0.70;;
14400;SDS011;7285;50.894;5.462;2023-06-24T06:05:04;1.40;;;1.17;;
14400;SDS011;7285;50.894;5.462;2023-06-24T06:07:32;0.77;;;0.73;;
14400;SDS011;7285;50.894;5.462;2023-06-24T06:09:59;0.87;;;0.87;;
14400;SDS011;7285;50.894;5.462;2023-06-24T06:12:26;1.97;;;1.27;;
14400;SDS011;7285;50.894;5.462;2023-06-24T06:14:53;0.83;;;0.83;;
14400;SDS011;7285;50.894;5.462;2023-06-24T06:17:20;1.07;;;0.80;;
14400;SDS011;7285;50.894;5.462;2023-06-24T06:19:49;0.63;;;0.63;;
14400;SDS011;7285;50.894;5.462;2023-06-24T06:22:15;1.00;;;1.00;;
14400;SDS011;7285;50.894;5.462;2023-06-24T06:24:43;1.17;;;0.93;;
14400;SDS011;7285;50.894;5.462;2023-06-24T06:27:10;0.73;;;0.70;;
14400;SDS011;7285;50.894;5.462;2023-06-24T06:29:37;0.60;;;0.60;;
14400;SDS011;7285;50.894;5.462;2023-06-24T06:32:04;0.70;;;0.70;;
14400;SDS011;7285;50.894;5.462;2023-06-24T06:34:31;1.40;;;0.87;;
14400;SDS011;7285;50.894;5.462;2023-06-24T06:36:59;0.50;;;0.50;;
14400;SDS011;7285;50.894;5.462;2023-06-24T06:39:26;0.67;;;0.50;;
14400;SDS011;7285;50.894;5.462;2023-06-24T06:41:53;0.70;;;0.70;;
14400;SDS011;7285;50.894;5.462;2023-06-24T06:44:20;2.73;;;0.97;;
14400;SDS011;7285;50.894;5.462;2023-06-24T06:46:47;0.57;;;0.57;;
14400;SDS011;7285;50.894;5.462;2023-06-24T06:49:14;0.30;;;0.30;;
14400;SDS011;7285;50.894;5.462;2023-06-24T06:51:41;0.87;;;0.47;;
14400;SDS011;7285;50.894;5.462;2023-06-24T06:54:09;0.57;;;0.57;;
14400;SDS011;7285;50.894;5.462;2023-06-24T06:56:36;0.70;;;0.70;;
14400;SDS011;7285;50.894;5.462;2023-06-24T06:59:04;0.60;;;0.60;;
14400;SDS011;7285;50.894;5.462;2023-06-24T07:01:31;0.63;;;0.63;;
14400;SDS011;7285;50.894;5.462;2023-06-24T07:03:58;0.63;;;0.63;;
14400;SDS011;7285;50.894;5.462;2023-06-24T07:06:25;0.63;;;0.63;;
14400;SDS011;7285;50.894;5.462;2023-06-24T07:08:52;0.40;;;0.40;;
14400;SDS011;7285;50.894;5.462;2023-06-24T07:11:21;0.83;;;0.67;;
14400;SDS011;7285;50.894;5.462;2023-06-24T07:13:48;0.60;;;0.60;;
14400;SDS011;7285;50.894;5.462;2023-06-24T07:16:16;0.47;;;0.47;;
14400;SDS011;7285;50.894;5.462;2023-06-24T07:18:43;0.63;;;0.60;;
14400;SDS011;7285;50.894;5.462;2023-06-24T07:21:10;3.77;;;0.80;;
14400;SDS011;7285;50.894;5.462;2023-06-24T07:23:37;0.57;;;0.57;;
14400;SDS011;7285;50.894;5.462;2023-06-24T07:26:04;3.30;;;0.60;;
14400;SDS011;7285;50.894;5.462;2023-06-24T07:28:33;0.40;;;0.40;;
14400;SDS011;7285;50.894;5.462;2023-06-24T07:31:01;0.67;;;0.67;;
14400;SDS011;7285;50.894;5.462;2023-06-24T07:33:28;0.60;;;0.60;;
14400;SDS011;7285;50.894;5.462;2023-06-24T07:35:55;0.30;;;0.30;;
14400;SDS011;7285;50.894;5.462;2023-06-24T07:38:22;0.63;;;0.53;;
14400;SDS011;7285;50.894;5.462;2023-06-24T07:40:49;0.40;;;0.40;;
14400;SDS011;7285;50.894;5.462;2023-06-24T07:43:16;0.40;;;0.40;;
14400;SDS011;7285;50.894;5.462;2023-06-24T07:45:44;0.40;;;0.40;;
14400;SDS011;7285;50.894;5.462;2023-06-24T07:48:11;0.30;;;0.30;;
14400;SDS011;7285;50.894;5.462;2023-06-24T07:50:39;0.40;;;0.40;;
14400;SDS011;7285;50.894;5.462;2023-06-24T07:53:06;0.53;;;0.40;;
14400;SDS011;7285;50.894;5.462;2023-06-24T07:55:32;0.40;;;0.40;;
14400;SDS011;7285;50.894;5.462;2023-06-24T07:57:59;0.30;;;0.30;;
14400;SDS011;7285;50.894;5.462;2023-06-24T08:00:27;0.73;;;0.47;;
14400;SDS011;7285;50.894;5.462;2023-06-24T08:02:56;0.30;;;0.30;;
14400;SDS011;7285;50.894;5.462;2023-06-24T08:05:23;0.50;;;0.47;;
14400;SDS011;7285;50.894;5.462;2023-06-24T08:07:51;0.90;;;0.50;;
14400;SDS011;7285;50.894;5.462;2023-06-24T08:10:18;0.68;;;0.40;;
14400;SDS011;7285;50.894;5.462;2023-06-24T08:12:45;0.35;;;0.30;;
14400;SDS011;7285;50.894;5.462;2023-06-24T08:15:12;0.40;;;0.35;;
14400;SDS011;7285;50.894;5.462;2023-06-24T08:17:39;1.02;;;0.75;;
14400;SDS011;7285;50.894;5.462;2023-06-24T08:20:08;0.35;;;0.35;;
14400;SDS011;7285;50.894;5.462;2023-06-24T08:22:36;0.30;;;0.30;;
14400;SDS011;7285;50.894;5.462;2023-06-24T08:25:03;0.40;;;0.40;;
14400;SDS011;7285;50.894;5.462;2023-06-24T08:27:31;1.23;;;0.50;;
14400;SDS011;7285;50.894;5.462;2023-06-24T08:29:58;0.30;;;0.30;;
14400;SDS011;7285;50.894;5.462;2023-06-24T08:32:24;0.25;;;0.25;;
14400;SDS011;7285;50.894;5.462;2023-06-24T08:34:51;0.85;;;0.40;;
14400;SDS011;7285;50.894;5.462;2023-06-24T08:37:20;0.40;;;0.40;;
14400;SDS011;7285;50.894;5.462;2023-06-24T08:39:46;0.50;;;0.40;;
14400;SDS011;7285;50.894;5.462;2023-06-24T08:42:13;0.30;;;0.30;;
14400;SDS011;7285;50.894;5.462;2023-06-24T08:44:40;0.30;;;0.30;;
14400;SDS011;7285;50.894;5.462;2023-06-24T08:47:07;0.43;;;0.43;;
14400;SDS011;7285;50.894;5.462;2023-06-24T08:49:36;0.75;;;0.28;;
14400;SDS011;7285;50.894;5.462;2023-06-24T08:52:11;0.40;;;0.38;;
14400;SDS011;7285;50.894;5.462;2023-06-24T08:54:44;0.20;;;0.20;;
14400;SDS011;7285;50.894;5.462;2023-06-24T08:57:13;0.28;;;0.28;;
14400;SDS011;7285;50.894;5.462;2023-06-24T08:59:40;0.30;;;0.30;;
14400;SDS011;7285;50.894;5.462;2023-06-24T09:02:08;0.50;;;0.50;;
14400;SDS011;7285;50.894;5.462;2023-06-24T09:04:36;0.35;;;0.35;;
14400;SDS011;7285;50.894;5.462;2023-06-24T09:07:03;0.20;;;0.20;;
14400;SDS011;7285;50.894;5.462;2023-06-24T09:09:30;0.20;;;0.20;;
14400;SDS011;7285;50.894;5.462;2023-06-24T09:11:59;0.10;;;0.10;;
14400;SDS011;7285;50.894;5.462;2023-06-24T09:14:28;0.40;;;0.40;;
14400;SDS011;7285;50.894;5.462;2023-06-24T09:16:56;0.38;;;0.38;;
14400;SDS011;7285;50.894;5.462;2023-06-24T09:19:27;0.40;;;0.40;;
14400;SDS011;7285;50.894;5.462;2023-06-24T09:21:54;0.15;;;0.15;;
14400;SDS011;7285;50.894;5.462;2023-06-24T09:24:26;0.63;;;0.45;;
14400;SDS011;7285;50.894;5.462;2023-06-24T09:26:55;0.30;;;0.20;;
14400;SDS011;7285;50.894;5.462;2023-06-24T09:29:26;0.20;;;0.20;;
14400;SDS011;7285;50.894;5.462;2023-06-24T09:31:53;2.85;;;0.40;;
14400;SDS011;7285;50.894;5.462;2023-06-24T09:34:22;0.28;;;0.25;;
14400;SDS011;7285;50.894;5.462;2023-06-24T09:36:52;0.28;;;0.28;;
14400;SDS011;7285;50.894;5.462;2023-06-24T09:39:20;0.63;;;0.40;;
14400;SDS011;7285;50.894;5.462;2023-06-24T09:41:53;0.80;;;0.20;;
14400;SDS011;7285;50.894;5.462;2023-06-24T09:44:20;0.20;;;0.20;;
14400;SDS011;7285;50.894;5.462;2023-06-24T09:46:48;0.40;;;0.28;;
14400;SDS011;7285;50.894;5.462;2023-06-24T09:49:15;0.35;;;0.30;;
14400;SDS011;7285;50.894;5.462;2023-06-24T09:51:43;0.50;;;0.38;;
14400;SDS011;7285;50.894;5.462;2023-06-24T09:54:11;0.10;;;0.10;;
14400;SDS011;7285;50.894;5.462;2023-06-24T09:56:41;0.63;;;0.52;;
14400;SDS011;7285;50.894;5.462;2023-06-24T09:59:11;0.22;;;0.22;;
14400;SDS011;7285;50.894;5.462;2023-06-24T10:01:40;0.17;;;0.17;;
14400;SDS011;7285;50.894;5.462;2023-06-24T10:04:12;0.22;;;0.22;;
14400;SDS011;7285;50.894;5.462;2023-06-24T10:06:42;0.60;;;0.60;;
14400;SDS011;7285;50.894;5.462;2023-06-24T10:09:09;0.20;;;0.20;;
14400;SDS011;7285;50.894;5.462;2023-06-24T10:11:38;0.20;;;0.20;;
14400;SDS011;7285;50.894;5.462;2023-06-24T10:14:05;0.38;;;0.30;;
14400;SDS011;7285;50.894;5.462;2023-06-24T10:16:32;0.30;;;0.30;;
14400;SDS011;7285;50.894;5.462;2023-06-24T10:18:59;0.40;;;0.40;;
14400;SDS011;7285;50.894;5.462;2023-06-24T10:24:27;0.35;;;0.30;;
14400;SDS011;7285;50.894;5.462;2023-06-24T10:26:55;0.70;;;0.30;;
14400;SDS011;7285;50.894;5.462;2023-06-24T10:29:33;0.38;;;0.20;;
14400;SDS011;7285;50.894;5.462;2023-06-24T10:32:02;0.45;;;0.45;;
14400;SDS011;7285;50.894;5.462;2023-06-24T10:34:39;0.17;;;0.17;;
14400;SDS011;7285;50.894;5.462;2023-06-24T10:37:13;1.08;;;0.30;;
14400;SDS011;7285;50.894;5.462;2023-06-24T10:39:47;0.68;;;0.68;;
14400;SDS011;7285;50.894;5.462;2023-06-24T10:42:25;0.20;;;0.15;;
14400;SDS011;7285;50.894;5.462;2023-06-24T10:44:56;0.70;;;0.47;;
14400;SDS011;7285;50.894;5.462;2023-06-24T10:47:24;0.52;;;0.35;;
14400;SDS011;7285;50.894;5.462;2023-06-24T10:49:52;0.20;;;0.20;;
14400;SDS011;7285;50.894;5.462;2023-06-24T10:52:21;0.30;;;0.30;;
14400;SDS011;7285;50.894;5.462;2023-06-24T10:54:49;0.50;;;0.50;;
14400;SDS011;7285;50.894;5.462;2023-06-24T10:57:20;0.10;;;0.10;;
14400;SDS011;7285;50.894;5.462;2023-06-24T10:59:49;0.30;;;0.30;;
14400;SDS011;7285;50.894;5.462;2023-06-24T11:02:16;0.22;;;0.22;;
14400;SDS011;7285;50.894;5.462;2023-06-24T11:04:46;0.57;;;0.30;;
14400;SDS011;7285;50.894;5.462;2023-06-24T11:07:14;0.40;;;0.40;;
14400;SDS011;7285;50.894;5.462;2023-06-24T11:09:47;0.30;;;0.30;;
14400;SDS011;7285;50.894;5.462;2023-06-24T11:12:14;0.35;;;0.17;;
14400;SDS011;7285;50.894;5.462;2023-06-24T11:14:41;0.20;;;0.20;;
14400;SDS011;7285;50.894;5.462;2023-06-24T11:17:08;0.30;;;0.30;;
14400;SDS011;7285;50.894;5.462;2023-06-24T11:19:35;0.55;;;0.30;;
14400;SDS011;7285;50.894;5.462;2023-06-24T11:22:04;0.20;;;0.20;;
14400;SDS011;7285;50.894;5.462;2023-06-24T11:24:32;0.28;;;0.20;;
14400;SDS011;7285;50.894;5.462;2023-06-24T11:27:01;0.50;;;0.30;;
14400;SDS011;7285;50.894;5.462;2023-06-24T11:29:28;0.20;;;0.20;;
14400;SDS011;7285;50.894;5.462;2023-06-24T11:31:55;0.40;;;0.25;;
14400;SDS011;7285;50.894;5.462;2023-06-24T11:34:22;0.98;;;0.43;;
14400;SDS011;7285;50.894;5.462;2023-06-24T11:36:50;0.25;;;0.20;;
14400;SDS011;7285;50.894;5.462;2023-06-24T11:39:20;0.55;;;0.30;;
14400;SDS011;7285;50.894;5.462;2023-06-24T11:41:48;0.17;;;0.17;;
14400;SDS011;7285;50.894;5.462;2023-06-24T11:44:18;0.10;;;0.10;;
14400;SDS011;7285;50.894;5.462;2023-06-24T11:46:46;1.38;;;0.20;;
14400;SDS011;7285;50.894;5.462;2023-06-24T11:49:13;0.10;;;0.10;;
14400;SDS011;7285;50.894;5.462;2023-06-24T11:51:45;0.43;;;0.43;;
14400;SDS011;7285;50.894;5.462;2023-06-24T11:54:14;0.20;;;0.20;;
14400;SDS011;7285;50.894;5.462;2023-06-24T11:56:42;0.35;;;0.28;;
14400;SDS011;7285;50.894;5.462;2023-06-24T11:59:18;0.20;;;0.20;;
14400;SDS011;7285;50.894;5.462;2023-06-24T12:01:52;0.30;;;0.30;;
14400;SDS011;7285;50.894;5.462;2023-06-24T12:04:20;0.13;;;0.13;;
14400;SDS011;7285;50.894;5.462;2023-06-24T12:06:48;0.05;;;0.05;;
14400;SDS011;7285;50.894;5.462;2023-06-24T12:09:14;0.65;;;0.38;;
14400;SDS011;7285;50.894;5.462;2023-06-24T12:11:42;0.30;;;0.30;;
14400;SDS011;7285;50.894;5.462;2023-06-24T12:14:09;0.47;;;0.20;;
14400;SDS011;7285;50.894;5.462;2023-06-24T12:16:37;0.20;;;0.20;;
14400;SDS011;7285;50.894;5.462;2023-06-24T12:19:04;0.22;;;0.22;;
14400;SDS011;7285;50.894;5.462;2023-06-24T12:21:32;0.20;;;0.20;;
14400;SDS011;7285;50.894;5.462;2023-06-24T12:23:59;0.20;;;0.20;;
14400;SDS011;7285;50.894;5.462;2023-06-24T12:26:26;0.22;;;0.22;;
14400;SDS011;7285;50.894;5.462;2023-06-24T12:28:53;0.20;;;0.20;;
14400;SDS011;7285;50.894;5.462;2023-06-24T12:31:21;0.77;;;0.30;;
14400;SDS011;7285;50.894;5.462;2023-06-24T12:33:50;0.10;;;0.10;;
14400;SDS011;7285;50.894;5.462;2023-06-24T12:36:17;0.17;;;0.10;;
14400;SDS011;7285;50.894;5.462;2023-06-24T12:38:44;0.10;;;0.10;;
14400;SDS011;7285;50.894;5.462;2023-06-24T12:41:11;0.30;;;0.30;;
14400;SDS011;7285;50.894;5.462;2023-06-24T12:43:38;0.32;;;0.20;;
14400;SDS011;7285;50.894;5.462;2023-06-24T12:46:05;0.43;;;0.43;;
14400;SDS011;7285;50.894;5.462;2023-06-24T12:48:31;0.47;;;0.30;;
14400;SDS011;7285;50.894;5.462;2023-06-24T12:51:00;0.30;;;0.30;;
14400;SDS011;7285;50.894;5.462;2023-06-24T12:53:27;0.25;;;0.20;;
14400;SDS011;7285;50.894;5.462;2023-06-24T12:55:53;0.30;;;0.30;;
14400;SDS011;7285;50.894;5.462;2023-06-24T12:58:22;0.20;;;0.10;;
14400;SDS011;7285;50.894;5.462;2023-06-24T13:00:50;0.40;;;0.40;;
14400;SDS011;7285;50.894;5.462;2023-06-24T13:03:17;1.25;;;0.40;;
14400;SDS011;7285;50.894;5.462;2023-06-24T13:05:44;0.38;;;0.20;;
14400;SDS011;7285;50.894;5.462;2023-06-24T13:08:12;0.20;;;0.10;;
14400;SDS011;7285;50.894;5.462;2023-06-24T13:10:39;0.30;;;0.30;;
14400;SDS011;7285;50.894;5.462;2023-06-24T13:13:07;0.22;;;0.22;;
14400;SDS011;7285;50.894;5.462;2023-06-24T13:15:33;0.10;;;0.10;;
14400;SDS011;7285;50.894;5.462;2023-06-24T13:18:00;0.20;;;0.20;;
14400;SDS011;7285;50.894;5.462;2023-06-24T13:20:28;0.38;;;0.30;;
14400;SDS011;7285;50.894;5.462;2023-06-24T13:22:54;0.47;;;0.20;;
14400;SDS011;7285;50.894;5.462;2023-06-24T13:25:23;0.30;;;0.30;;
14400;SDS011;7285;50.894;5.462;2023-06-24T13:27:50;0.10;;;0.10;;
14400;SDS011;7285;50.894;5.462;2023-06-24T13:30:17;1.98;;;0.20;;
14400;SDS011;7285;50.894;5.462;2023-06-24T13:32:44;0.63;;;0.47;;
14400;SDS011;7285;50.894;5.462;2023-06-24T13:35:11;0.20;;;0.20;;
14400;SDS011;7285;50.894;5.462;2023-06-24T13:37:38;0.45;;;0.30;;
14400;SDS011;7285;50.894;5.462;2023-06-24T13:40:06;0.63;;;0.25;;
14400;SDS011;7285;50.894;5.462;2023-06-24T13:42:35;0.25;;;0.13;;
14400;SDS011;7285;50.894;5.462;2023-06-24T13:45:02;0.25;;;0.15;;
14400;SDS011;7285;50.894;5.462;2023-06-24T13:47:29;0.30;;;0.30;;
14400;SDS011;7285;50.894;5.462;2023-06-24T13:49:56;0.20;;;0.20;;
14400;SDS011;7285;50.894;5.462;2023-06-24T13:52:24;1.00;;;0.35;;
14400;SDS011;7285;50.894;5.462;2023-06-24T13:54:51;0.40;;;0.20;;
14400;SDS011;7285;50.894;5.462;2023-06-24T13:57:18;0.50;;;0.30;;
14400;SDS011;7285;50.894;5.462;2023-06-24T13:59:46;0.00;;;0.00;;
14400;SDS011;7285;50.894;5.462;2023-06-24T14:02:13;0.10;;;0.10;;
14400;SDS011;7285;50.894;5.462;2023-06-24T14:04:40;0.10;;;0.10;;
14400;SDS011;7285;50.894;5.462;2023-06-24T14:07:07;0.20;;;0.20;;
14400;SDS011;7285;50.894;5.462;2023-06-24T14:09:34;0.20;;;0.20;;
14400;SDS011;7285;50.894;5.462;2023-06-24T14:12:01;0.28;;;0.20;;
14400;SDS011;7285;50.894;5.462;2023-06-24T14:14:29;0.10;;;0.10;;
14400;SDS011;7285;50.894;5.462;2023-06-24T14:16:57;0.47;;;0.20;;
14400;SDS011;7285;50.894;5.462;2023-06-24T14:19:24;0.30;;;0.30;;
14400;SDS011;7285;50.894;5.462;2023-06-24T14:21:51;0.05;;;0.03;;
14400;SDS011;7285;50.894;5.462;2023-06-24T14:24:18;0.20;;;0.20;;
14400;SDS011;7285;50.894;5.462;2023-06-24T14:26:45;0.35;;;0.22;;
14400;SDS011;7285;50.894;5.462;2023-06-24T14:29:14;0.10;;;0.10;;
14400;SDS011;7285;50.894;5.462;2023-06-24T14:31:41;0.13;;;0.10;;
14400;SDS011;7285;50.894;5.462;2023-06-24T14:34:09;0.35;;;0.10;;
14400;SDS011;7285;50.894;5.462;2023-06-24T14:36:36;0.30;;;0.20;;
14400;SDS011;7285;50.894;5.462;2023-06-24T14:39:03;0.20;;;0.20;;
14400;SDS011;7285;50.894;5.462;2023-06-24T14:41:30;0.20;;;0.20;;
14400;SDS011;7285;50.894;5.462;2023-06-24T14:43:57;0.25;;;0.10;;
14400;SDS011;7285;50.894;5.462;2023-06-24T14:46:24;0.00;;;0.00;;
14400;SDS011;7285;50.894;5.462;2023-06-24T14:48:51;0.40;;;0.40;;
14400;SDS011;7285;50.894;5.462;2023-06-24T14:51:19;0.40;;;0.10;;
14400;SDS011;7285;50.894;5.462;2023-06-24T14:53:47;0.75;;;0.20;;
14400;SDS011;7285;50.894;5.462;2023-06-24T14:56:14;0.10;;;0.10;;
14400;SDS011;7285;50.894;5.462;2023-06-24T14:58:41;0.15;;;0.10;;
14400;SDS011;7285;50.894;5.462;2023-06-24T15:01:07;0.30;;;0.30;;
14400;SDS011;7285;50.894;5.462;2023-06-24T15:03:34;0.20;;;0.20;;
14400;SDS011;7285;50.894;5.462;2023-06-24T15:06:01;0.20;;;0.20;;
14400;SDS011;7285;50.894;5.462;2023-06-24T15:08:30;0.20;;;0.20;;